Time;durP1;ratioP1;P1;durP2;ratioP2;P2;SDS_P1;SDS_P2;PMS_P1;PMS_P2;Temp;Humidity;BMP_temperature;BMP_pressure;BME280_temperature;BME280_humidity;BME280_pressure;Samples;Min_cycle;Max_cycle;Signal;HPM_P1;HPM_P2
2021/05/11 00:01:11;;;;;;;3.12;1.25;;;;;;;10.08;61.40;101406.62;1774371;79;21455;-65
2021/05/11 00:03:39;;;;;;;4.42;1.22;;;;;;;10.03;61.61;101403.56;1770320;81;21469;-65
2021/05/11 00:06:07;;;;;;;2.62;1.20;;;;;;;10.00;61.90;101403.63;1771054;79;21214;-66
2021/05/11 00:08:35;;;;;;;4.15;1.00;;;;;;;9.95;62.20;101405.54;1770126;81;21166;-65
2021/05/11 00:11:03;;;;;;;2.35;0.90;;;;;;;9.92;62.48;101408.29;1777447;79;21382;-66
2021/05/11 00:13:31;;;;;;;2.85;1.27;;;;;;;9.88;62.64;101398.56;1785840;79;21225;-65
2021/05/11 00:15:59;;;;;;;1.47;0.90;;;;;;;9.83;62.80;101397.75;1775142;79;21355;-66
2021/05/11 00:18:27;;;;;;;2.15;1.00;;;;;;;9.80;62.69;101397.82;1753286;79;21194;-65
2021/05/11 00:20:55;;;;;;;1.30;0.90;;;;;;;9.75;62.36;101396.13;1749433;80;21169;-65
2021/05/11 00:23:23;;;;;;;2.08;1.00;;;;;;;9.71;61.81;101394.44;1749575;80;22302;-64
2021/05/11 00:25:51;;;;;;;2.08;0.93;;;;;;;9.70;61.57;101400.70;1744157;82;21181;-65
2021/05/11 00:28:20;;;;;;;1.07;0.82;;;;;;;9.68;61.03;101398.97;1763343;80;21189;-65
2021/05/11 00:30:49;;;;;;;3.52;1.00;;;;;;;9.66;61.06;101401.69;1774671;80;21933;-65
2021/05/11 00:33:17;;;;;;;3.35;1.00;;;;;;;9.63;60.94;101397.75;1773144;80;21201;-64
2021/05/11 00:35:45;;;;;;;2.45;1.10;;;;;;;9.58;61.05;101393.81;1773356;80;21724;-64
2021/05/11 00:38:13;;;;;;;3.12;1.22;;;;;;;9.52;61.19;101390.38;1774486;80;21173;-65
2021/05/11 00:40:41;;;;;;;3.35;1.10;;;;;;;9.48;61.26;101392.70;1758927;80;21185;-64
2021/05/11 00:43:12;;;;;;;3.90;1.10;;;;;;;9.43;61.30;101389.66;1770244;80;21225;-65
2021/05/11 00:45:40;;;;;;;2.98;1.12;;;;;;;9.39;61.51;101386.59;1689273;83;21231;-65
2021/05/11 00:48:08;;;;;;;4.33;1.65;;;;;;;9.39;61.68;101387.06;1685243;85;21781;-64
2021/05/11 00:50:35;;;;;;;10.20;1.60;;;;;;;9.38;61.56;101386.17;1702356;82;21662;-65
2021/05/11 00:53:03;;;;;;;20.55;1.60;;;;;;;9.43;61.77;101386.09;1760761;80;21248;-65
2021/05/11 00:55:31;;;;;;;3.47;1.72;;;;;;;9.43;61.97;101384.30;1770772;80;21201;-64
2021/05/11 00:58:00;;;;;;;3.25;1.45;;;;;;;9.43;62.28;101380.30;1740501;80;21206;-66
2021/05/11 01:00:30;;;;;;;6.58;1.45;;;;;;;9.40;62.37;101373.66;1739863;80;21264;-65
2021/05/11 01:03:00;;;;;;;3.60;1.65;;;;;;;9.40;62.05;101366.98;1740153;80;21229;-66
2021/05/11 01:05:28;;;;;;;1.00;0.90;;;;;;;9.45;61.48;101377.13;1741724;80;21222;-63
2021/05/11 01:07:57;;;;;;;3.60;1.60;;;;;;;9.51;61.06;101364.08;1738476;80;21230;-65
2021/05/11 01:10:25;;;;;;;4.20;1.40;;;;;;;9.59;61.17;101363.45;1747914;80;21667;-65
2021/05/11 01:12:54;;;;;;;1.87;1.15;;;;;;;9.66;61.05;101370.90;1740459;82;21473;-64
2021/05/11 01:15:22;;;;;;;4.45;1.40;;;;;;;9.72;60.96;101369.42;1773997;80;21242;-64
2021/05/11 01:17:55;;;;;;;5.65;1.45;;;;;;;9.79;60.76;101366.60;1773647;80;21231;-64
2021/05/11 01:20:30;;;;;;;2.95;1.15;;;;;;;9.80;60.50;101365.24;1792926;79;21226;-66
2021/05/11 01:25:30;;;;;;;4.55;1.65;;;;;;;9.78;60.92;101360.38;1781890;79;21199;-65
2021/05/11 01:28:29;;;;;;;2.08;1.20;;;;;;;9.75;61.08;101364.00;1776963;80;21503;-65
2021/05/11 01:31:27;;;;;;;3.85;1.80;;;;;;;9.77;61.18;101357.72;1780570;80;21267;-65
2021/05/11 01:47:43;;;;;;;2.33;1.20;;;;;;;9.59;62.32;101350.06;1766949;81;21194;-64
2021/05/11 01:50:08;;;;;;;2.62;1.22;;;;;;;9.59;62.26;101349.17;1766628;81;21229;-65
2021/05/11 01:52:46;;;;;;;13.18;4.50;;;;;;;9.58;62.40;101345.63;1776129;79;21278;-66
2021/05/11 01:55:23;;;;;;;4.67;1.65;;;;;;;9.60;62.62;101342.89;1772027;79;21238;-65
2021/05/11 02:25:13;;;;;;;3.87;1.30;;;;;;;9.35;63.42;101313.98;1742376;80;21581;-65
2021/05/11 02:27:42;;;;;;;3.20;1.35;;;;;;;9.33;63.50;101321.16;1764711;79;21173;-66
2021/05/11 02:30:12;;;;;;;1.95;1.02;;;;;;;9.29;63.58;101310.99;1763124;80;21182;-64
2021/05/11 02:32:41;;;;;;;2.40;1.32;;;;;;;9.26;63.73;101307.02;1766088;79;21597;-66
2021/05/11 02:35:11;;;;;;;2.60;1.30;;;;;;;9.26;63.79;101302.14;1790384;79;21214;-64
2021/05/11 02:37:39;;;;;;;3.25;1.40;;;;;;;9.23;63.85;101306.22;1777551;79;21231;-65
2021/05/11 02:40:09;;;;;;;1.95;1.35;;;;;;;9.19;64.04;101302.72;1768593;79;21249;-65
2021/05/11 02:42:38;;;;;;;3.08;1.30;;;;;;;9.17;64.15;101300.09;1774976;79;21206;-64
2021/05/11 02:45:10;;;;;;;2.80;1.30;;;;;;;9.14;64.33;101300.12;1773676;79;21194;-65
2021/05/11 02:47:49;;;;;;;3.30;1.22;;;;;;;9.14;64.62;101300.59;1787252;79;21218;-64
2021/05/11 02:50:26;;;;;;;2.50;1.37;;;;;;;9.16;64.75;101297.44;1792625;79;21228;-65
2021/05/11 02:52:54;;;;;;;1.47;1.17;;;;;;;9.22;64.81;101301.78;1776884;79;21232;-65
2021/05/11 02:55:22;;;;;;;5.05;1.57;;;;;;;9.29;64.77;101300.73;1763895;79;21231;-63
2021/05/11 02:57:51;;;;;;;2.52;1.32;;;;;;;9.39;64.59;101308.98;1764125;79;21210;-65
2021/05/11 03:00:20;;;;;;;4.90;1.30;;;;;;;9.48;64.47;101303.89;1738538;79;21194;-65
2021/05/11 03:02:48;;;;;;;3.83;1.57;;;;;;;9.54;64.36;101294.85;1781118;79;21139;-66
2021/05/11 03:05:17;;;;;;;2.17;1.35;;;;;;;9.62;64.28;101299.59;1775245;79;21191;-64
2021/05/11 03:07:44;;;;;;;7.35;1.50;;;;;;;9.68;64.24;101311.50;1781859;78;21121;-64
2021/05/11 03:10:15;;;;;;;3.15;1.60;;;;;;;9.77;64.11;101306.84;1788289;79;21360;-65
2021/05/11 03:12:43;;;;;;;5.05;1.50;;;;;;;9.87;63.87;101317.31;1790564;78;21189;-65
2021/05/11 03:15:12;;;;;;;2.62;1.70;;;;;;;9.95;63.57;101314.45;1730418;81;21222;-64
2021/05/11 03:17:40;;;;;;;2.42;1.32;;;;;;;10.02;63.40;101314.73;1776476;79;21264;-64
2021/05/11 03:20:10;;;;;;;3.55;1.60;;;;;;;10.09;63.24;101314.13;1759630;80;21232;-64
2021/05/11 03:22:39;;;;;;;4.35;1.60;;;;;;;10.17;63.21;101304.13;1714464;83;21193;-66
2021/05/11 03:25:08;;;;;;;4.62;1.92;;;;;;;10.27;63.12;101310.11;1778778;80;21172;-65
2021/05/11 03:27:38;;;;;;;5.10;1.45;;;;;;;10.39;62.88;101310.73;1751305;80;21240;-66
2021/05/11 03:30:08;;;;;;;6.97;3.58;;;;;;;10.52;62.66;101312.23;1747538;82;21216;-64
2021/05/11 03:32:36;;;;;;;12.73;3.80;;;;;;;10.62;62.59;101310.63;1774655;80;21161;-65
2021/05/11 03:35:04;;;;;;;25.92;12.30;;;;;;;10.67;62.63;101310.95;1772953;80;22328;-65
2021/05/11 03:37:32;;;;;;;9.18;4.75;;;;;;;10.76;62.54;101308.48;1750729;80;21188;-65
2021/05/11 03:40:00;;;;;;;6.72;2.27;;;;;;;10.85;62.44;101311.37;1714162;82;21185;-65
2021/05/11 03:42:33;;;;;;;7.80;1.82;;;;;;;10.92;62.23;101307.59;1747807;82;21164;-66
2021/05/11 03:45:02;;;;;;;5.35;1.87;;;;;;;11.00;62.01;101307.39;1747832;80;21207;-63
2021/05/11 03:47:44;;;;;;;7.78;1.98;;;;;;;11.14;61.83;101307.86;1817242;78;28268;-65
2021/05/11 03:50:23;;;;;;;3.77;1.30;;;;;;;11.19;61.80;101313.10;1837926;78;28384;-65
2021/05/11 03:53:01;;;;;;;5.83;1.70;;;;;;;11.28;61.72;101310.17;1794872;78;38268;-63
2021/05/11 03:55:51;;;;;;;2.30;1.67;;;;;;;11.33;61.46;101305.98;1785187;79;21211;-66
2021/05/11 03:58:28;;;;;;;2.10;1.40;;;;;;;11.53;61.23;101305.86;1820449;77;28709;-66
2021/05/11 04:01:05;;;;;;;8.08;1.72;;;;;;;11.61;60.80;101306.53;1838822;77;28305;-66
2021/05/11 04:03:51;;;;;;;3.98;2.12;;;;;;;11.68;60.65;101300.48;1813154;79;21000;-66
2021/05/11 04:06:29;;;;;;;4.15;1.87;;;;;;;11.89;60.45;101308.35;1825101;77;28183;-66
2021/05/11 04:17:27;;;;;;;64.35;35.73;;;;;;;12.50;59.29;101301.03;1838691;76;28254;-66
2021/05/11 04:20:05;;;;;;;11.83;5.97;;;;;;;12.60;58.96;101295.28;1763805;78;28603;-65
2021/05/11 04:22:49;;;;;;;6.70;2.70;;;;;;;12.79;58.50;101291.95;1822816;77;28240;-64
2021/05/11 04:25:40;;;;;;;8.18;5.05;;;;;;;12.83;58.10;101281.97;1812491;79;21161;-66
2021/05/11 04:28:18;;;;;;;4.42;2.35;;;;;;;12.97;57.91;101281.45;1833942;78;28276;-66
2021/05/11 04:30:55;;;;;;;20.55;9.58;;;;;;;13.03;57.81;101274.01;1833726;77;28713;-66
2021/05/11 04:33:41;;;;;;;16.23;6.12;;;;;;;13.07;57.79;101282.00;1769982;80;21044;-66
2021/05/11 04:36:18;;;;;;;9.35;3.62;;;;;;;13.21;57.54;101287.72;1838535;77;28756;-63
2021/05/11 04:38:56;;;;;;;11.78;4.03;;;;;;;13.26;57.61;101280.38;1838544;78;28255;-64
2021/05/11 04:41:33;;;;;;;11.85;4.28;;;;;;;13.34;57.59;101277.36;1833075;78;28570;-65
2021/05/11 04:44:11;;;;;;;24.55;13.88;;;;;;;13.42;57.47;101284.70;1835448;77;28288;-64
2021/05/11 04:46:51;;;;;;;12.07;4.03;;;;;;;13.43;57.85;101283.80;1838298;77;28751;-66
2021/05/11 04:49:36;;;;;;;29.67;16.02;;;;;;;13.49;57.92;101280.45;1813459;79;21203;-66
2021/05/11 04:52:18;;;;;;;94.25;47.93;;;;;;;13.67;57.78;101285.13;1833252;78;29215;-66
2021/05/11 04:54:56;;;;;;;30.72;16.93;;;;;;;13.77;57.88;101298.22;1833296;78;29452;-66
2021/05/11 04:57:34;;;;;;;48.10;26.35;;;;;;;13.91;57.61;101293.16;1807086;78;28700;-66
2021/05/11 05:00:14;;;;;;;13.78;6.15;;;;;;;14.13;57.39;101282.84;1832929;78;28716;-66
2021/05/11 05:03:02;;;;;;;29.05;16.90;;;;;;;14.26;57.01;101281.41;1805194;79;21185;-65
2021/05/11 05:05:40;;;;;;;43.30;24.70;;;;;;;14.55;56.12;101283.32;1818655;78;29336;-67
2021/05/11 05:08:16;;;;;;;237.63;146.53;;;;;;;14.73;56.08;101284.85;1785251;78;28271;-65
2021/05/11 05:10:54;;;;;;;81.35;44.05;;;;;;;14.94;55.27;101287.05;1811365;78;28333;-66
2021/05/11 05:13:34;;;;;;;20.37;10.38;;;;;;;15.13;54.98;101297.89;1795830;78;28704;-65
2021/05/11 05:16:20;;;;;;;79.32;44.83;;;;;;;15.27;54.17;101299.09;1706851;83;21222;-64
2021/05/11 05:18:57;;;;;;;33.53;18.87;;;;;;;15.46;53.09;101293.23;1823938;76;28281;-65
2021/05/11 05:21:35;;;;;;;114.72;64.25;;;;;;;15.56;52.59;101296.84;1823945;77;28475;-64
2021/05/11 05:24:16;;;;;;;89.22;49.80;;;;;;;15.69;51.23;101307.95;1832951;78;28310;-65
2021/05/11 05:26:54;;;;;;;84.22;50.38;;;;;;;15.83;50.55;101304.61;1818849;78;28773;-64
2021/05/11 05:29:40;;;;;;;37.75;23.38;;;;;;;15.90;50.20;101300.68;1698029;79;21266;-66
2021/05/11 05:32:17;;;;;;;56.48;35.03;;;;;;;16.11;50.10;101293.81;1799930;78;26646;-66
2021/05/11 05:34:54;;;;;;;42.33;22.70;;;;;;;16.25;49.72;101291.77;1804226;77;28276;-65
2021/05/11 05:37:33;;;;;;;31.25;17.00;;;;;;;16.41;49.76;101287.80;1833465;78;28480;-67
2021/05/11 05:40:21;;;;;;;34.65;20.75;;;;;;;16.52;48.84;101281.37;1802211;78;21169;-66
2021/05/11 05:42:58;;;;;;;133.82;82.08;;;;;;;16.78;48.70;101276.42;1833507;77;28563;-66
2021/05/11 05:45:36;;;;;;;65.55;38.95;;;;;;;16.98;48.08;101277.20;1833434;77;22330;-65
2021/05/11 05:48:13;;;;;;;98.55;55.55;;;;;;;17.15;47.31;101271.78;1825322;78;28474;-64
2021/05/11 05:53:39;;;;;;;29.65;15.53;;;;;;;17.41;46.22;101272.63;1822107;77;22733;-68
2021/05/11 05:56:25;;;;;;;33.85;18.10;;;;;;;17.38;43.39;101264.22;1807008;79;21114;-66
2021/05/11 05:59:03;;;;;;;91.80;52.40;;;;;;;17.43;42.95;101265.29;1808252;78;22821;-67
2021/05/11 06:01:40;;;;;;;49.42;27.25;;;;;;;17.36;42.61;101264.78;1827812;77;22750;-64
2021/05/11 06:04:19;;;;;;;149.25;82.10;;;;;;;17.34;42.82;101258.54;1825615;78;22104;-66
2021/05/11 06:07:06;;;;;;;53.95;28.67;;;;;;;17.33;42.30;101258.15;1785909;78;21170;-64
2021/05/11 06:09:44;;;;;;;10.40;5.58;;;;;;;17.42;42.32;101256.30;1813128;78;22799;-65
2021/05/11 06:12:30;;;;;;;5.42;2.75;;;;;;;17.39;41.48;101255.13;1815874;78;21931;-67
2021/05/11 06:17:45;;;;;;;11.28;2.40;;;;;;;17.33;42.79;101240.07;1813117;76;22770;-65
2021/05/11 06:20:33;;;;;;;7.75;2.40;;;;;;;17.40;43.09;101247.84;1829511;77;22636;-66
2021/05/11 06:23:28;;;;;;;7.00;2.42;;;;;;;17.37;41.90;101252.98;1845152;76;24004;-66
2021/05/11 06:26:14;;;;;;;6.72;2.50;;;;;;;17.26;41.45;101254.93;1798263;79;21178;-65
2021/05/11 06:28:54;;;;;;;9.13;2.95;;;;;;;17.20;40.49;101259.31;1809004;78;29154;-66
2021/05/11 06:31:32;;;;;;;5.97;2.50;;;;;;;17.14;40.66;101261.01;1816995;76;21826;-65
2021/05/11 06:34:10;;;;;;;8.35;2.80;;;;;;;17.08;39.51;101245.95;1818304;76;22796;-64
2021/05/11 06:36:48;;;;;;;8.90;2.37;;;;;;;17.02;39.60;101240.88;1830056;76;28484;-66
2021/05/11 06:39:26;;;;;;;16.12;3.37;;;;;;;17.07;40.27;101229.31;1820753;77;23016;-66
2021/05/11 06:42:05;;;;;;;8.05;2.87;;;;;;;17.09;40.17;101226.03;1822842;76;22700;-65
2021/05/11 06:45:07;;;;;;;4.80;2.60;;;;;;;17.06;38.16;101241.60;1793468;77;20964;-66
2021/05/11 06:47:59;;;;;;;6.65;2.40;;;;;;;17.08;37.47;101232.91;1819030;78;29165;-65
2021/05/11 06:50:44;;;;;;;7.12;2.20;;;;;;;17.03;38.61;101231.80;1818628;77;22802;-68
2021/05/11 06:56:02;;;;;;;14.43;4.40;;;;;;;17.11;38.91;101228.17;1823343;76;23302;-67
2021/05/11 06:58:40;;;;;;;8.20;2.77;;;;;;;17.26;38.66;101230.55;1818288;77;22345;-66
2021/05/11 07:01:26;;;;;;;8.63;2.80;;;;;;;17.35;36.84;101223.70;1805961;77;21141;-67
2021/05/11 07:04:05;;;;;;;6.83;2.47;;;;;;;17.57;36.54;101231.98;1816987;78;21835;-67
2021/05/11 07:06:42;;;;;;;4.60;2.10;;;;;;;17.70;34.69;101246.59;1821272;76;22731;-66
2021/05/11 07:14:45;;;;;;;6.65;2.27;;;;;;;17.96;34.84;101233.35;1801338;79;22141;-67
2021/05/11 07:17:23;;;;;;;12.53;4.20;;;;;;;18.16;33.43;101236.77;1823726;77;23240;-67
2021/05/11 07:20:00;;;;;;;9.38;3.80;;;;;;;18.29;33.58;101241.86;1817897;76;22134;-65
2021/05/11 07:22:38;;;;;;;14.43;4.47;;;;;;;18.45;34.11;101232.77;1818417;78;23448;-64
2021/05/11 07:25:14;;;;;;;4.17;2.75;;;;;;;18.68;33.88;101229.13;1820779;77;22395;-66
2021/05/11 07:30:48;;;;;;;4.08;2.00;;;;;;;19.07;33.08;101229.00;1821439;77;23650;-66
2021/05/11 07:36:20;;;;;;;11.12;2.92;;;;;;;19.02;31.47;101212.13;1816508;78;23347;-66
2021/05/11 07:38:59;;;;;;;6.47;2.50;;;;;;;19.06;31.14;101225.04;1828495;77;22853;-66
2021/05/11 07:41:47;;;;;;;4.30;1.70;;;;;;;19.12;30.71;101221.92;1795268;78;21429;-67
2021/05/11 07:44:31;;;;;;;3.85;2.20;;;;;;;19.30;29.43;101228.02;1848866;75;22823;-67
2021/05/11 08:10:47;;;;;;;10.88;2.20;;;;;;;19.16;29.75;101193.10;1807415;77;28256;-67
2021/05/11 08:16:15;;;;;;;6.17;2.05;;;;;;;19.22;29.61;101194.53;1819968;77;22763;-64
2021/05/11 08:19:06;;;;;;;2.37;1.57;;;;;;;19.33;28.51;101199.27;1810914;77;22101;-66
2021/05/11 08:22:07;;;;;;;9.00;2.15;;;;;;;19.34;28.12;101186.06;1792850;78;21237;-66
2021/05/11 08:27:44;;;;;;;5.25;1.90;;;;;;;19.51;28.01;101167.77;1813573;78;21839;-66
2021/05/11 08:30:18;;;;;;;11.45;1.92;;;;;;;19.60;28.50;101146.78;1826054;76;22928;-67
2021/05/11 08:33:04;;;;;;;7.15;2.02;;;;;;;19.67;27.92;101148.10;1796305;79;21162;-66
2021/05/11 08:35:41;;;;;;;4.37;1.90;;;;;;;19.79;27.63;101156.42;1825876;77;22388;-67
2021/05/11 08:38:35;;;;;;;10.08;1.90;;;;;;;19.76;27.48;101136.58;1820686;77;22785;-66
2021/05/11 08:41:23;;;;;;;7.20;1.70;;;;;;;19.75;27.59;101138.92;1824132;76;22727;-65
2021/05/11 08:44:07;;;;;;;2.65;1.60;;;;;;;19.80;27.04;101130.97;1813535;78;22859;-68
2021/05/11 08:49:38;;;;;;;5.37;2.20;;;;;;;19.83;27.04;101141.63;1818498;77;22433;-66
2021/05/11 08:52:29;;;;;;;7.42;2.05;;;;;;;19.85;26.97;101124.20;1816946;76;22263;-66
2021/05/11 09:07:01;;;;;;;5.53;1.80;;;;;;;20.24;27.19;101116.16;1814298;77;22864;-65
2021/05/11 09:24:52;;;;;;;4.03;1.45;;;;;;;20.39;28.24;101071.98;1820842;75;22105;-67
2021/05/11 09:56:48;;;;;;;4.20;1.82;;;;;;;21.40;30.90;101037.86;1824189;78;22854;-67
2021/05/11 10:49:39;;;;;;;8.53;1.52;;;;;;;22.22;33.79;100963.27;1817488;76;24405;-68
2021/05/11 10:52:23;;;;;;;5.42;1.80;;;;;;;22.31;33.69;100969.82;1820272;76;22376;-68
2021/05/11 10:55:22;;;;;;;8.53;1.72;;;;;;;22.29;33.63;100980.89;1786849;77;21082;-67
2021/05/11 10:57:59;;;;;;;7.75;1.55;;;;;;;22.41;33.59;100968.57;1820518;77;22282;-69
2021/05/11 11:00:42;;;;;;;8.15;1.70;;;;;;;22.40;34.22;100980.02;1812459;76;22359;-67
2021/05/11 11:03:27;;;;;;;7.08;1.77;;;;;;;22.43;34.04;100976.14;1823059;76;22298;-67
2021/05/11 11:06:07;;;;;;;6.67;1.65;;;;;;;22.50;33.82;100959.67;1819425;77;23918;-67
2021/05/11 11:08:45;;;;;;;7.30;2.55;;;;;;;22.52;33.78;100953.58;1818174;77;22687;-68
2021/05/11 11:11:31;;;;;;;4.30;1.77;;;;;;;22.53;34.20;100965.36;1796330;78;21178;-67
2021/05/11 11:14:14;;;;;;;5.25;1.47;;;;;;;22.66;34.33;100960.62;1821442;76;22781;-68
2021/05/11 11:17:05;;;;;;;3.25;1.70;;;;;;;22.70;34.40;100973.55;1825468;77;21846;-67
2021/05/11 11:19:41;;;;;;;8.50;1.70;;;;;;;22.73;34.39;100959.63;1822472;77;22256;-68
2021/05/11 11:25:32;;;;;;;9.15;2.20;;;;;;;22.72;34.17;100964.72;1737215;80;21713;-68
2021/05/11 11:28:10;;;;;;;6.60;1.40;;;;;;;22.75;34.55;100946.69;1782419;77;20908;-67
2021/05/11 11:30:47;;;;;;;5.62;2.00;;;;;;;22.78;34.27;100947.80;1785172;78;21586;-63
2021/05/11 11:33:32;;;;;;;6.55;2.15;;;;;;;22.69;34.53;100948.06;1756483;79;21225;-68
2021/05/11 11:36:33;;;;;;;6.75;1.90;;;;;;;22.68;34.34;100946.84;1762137;79;21192;-63
2021/05/11 11:39:17;;;;;;;7.90;1.77;;;;;;;22.75;34.55;100949.42;1817814;76;22833;-64
2021/05/11 11:41:56;;;;;;;4.08;1.75;;;;;;;22.73;35.06;100942.70;1822355;77;22326;-64
2021/05/11 11:44:42;;;;;;;5.42;1.95;;;;;;;22.75;34.94;100921.58;1786099;78;21193;-69
2021/05/11 11:47:22;;;;;;;5.65;1.80;;;;;;;22.84;35.21;100926.77;1820754;77;20924;-67
2021/05/11 11:50:19;;;;;;;5.80;1.70;;;;;;;22.92;34.63;100930.74;1857505;76;22289;-69
2021/05/11 11:53:14;;;;;;;3.00;1.32;;;;;;;22.95;34.91;100922.28;1820660;76;22073;-69
2021/05/11 11:56:37;;;;;;;10.30;1.80;;;;;;;22.93;34.40;100926.49;1828832;77;22752;-63
2021/05/11 11:59:14;;;;;;;5.87;1.60;;;;;;;22.83;34.69;100918.20;1791656;78;21150;-68
2021/05/11 12:02:01;;;;;;;8.90;2.20;;;;;;;22.87;34.98;100911.47;1819354;77;24370;-67
2021/05/11 12:04:38;;;;;;;4.92;2.00;;;;;;;22.90;34.79;100906.26;1816993;76;22809;-62
2021/05/11 12:07:34;;;;;;;5.15;2.08;;;;;;;22.85;35.14;100910.73;1789017;77;21164;-63
2021/05/11 12:10:12;;;;;;;8.35;1.90;;;;;;;22.97;34.71;100899.26;1792685;78;28510;-62
2021/05/11 12:12:51;;;;;;;9.50;1.65;;;;;;;23.02;34.44;100914.79;1820046;77;24556;-68
2021/05/11 12:15:28;;;;;;;8.88;2.20;;;;;;;22.96;34.62;100898.04;1830967;77;22857;-70
2021/05/11 12:18:19;;;;;;;8.85;1.90;;;;;;;22.86;35.08;100890.61;1804763;78;20952;-68
2021/05/11 12:21:06;;;;;;;2.92;1.20;;;;;;;22.91;35.41;100896.20;1820536;76;22307;-68
2021/05/11 12:23:43;;;;;;;8.03;2.02;;;;;;;22.94;34.95;100905.51;1807842;77;28002;-69
2021/05/11 12:26:20;;;;;;;6.45;1.77;;;;;;;22.97;35.39;100910.70;1824033;76;22096;-70
2021/05/11 12:29:12;;;;;;;9.45;1.77;;;;;;;23.04;35.35;100916.01;1825333;76;20933;-69
2021/05/11 12:31:49;;;;;;;8.05;1.92;;;;;;;23.10;35.04;100900.95;1822866;76;22249;-68
2021/05/11 12:34:27;;;;;;;7.25;2.30;;;;;;;23.07;35.40;100902.07;1817438;76;22206;-61
2021/05/11 12:37:13;;;;;;;17.82;2.95;;;;;;;23.05;35.51;100902.70;1777929;79;21166;-63
2021/05/11 12:39:54;;;;;;;5.50;1.62;;;;;;;23.16;35.30;100913.60;1800348;77;27933;-62
2021/05/11 12:42:31;;;;;;;13.50;1.90;;;;;;;23.21;35.09;100905.49;1824956;78;22234;-62
2021/05/11 12:45:17;;;;;;;7.30;1.50;;;;;;;23.12;35.22;100917.61;1796371;78;21545;-62
2021/05/11 12:48:02;;;;;;;4.33;1.52;;;;;;;23.13;35.38;100882.91;1815707;77;22408;-61
2021/05/11 12:50:47;;;;;;;3.52;1.52;;;;;;;23.13;35.63;100891.99;1815255;76;21881;-68
2021/05/11 12:53:46;;;;;;;7.30;1.95;;;;;;;23.15;35.91;100876.32;1816764;77;21938;-69
2021/05/11 13:02:34;;;;;;;9.78;2.22;;;;;;;23.20;36.28;100868.20;1816051;76;22820;-61
2021/05/11 13:26:31;;;;;;;9.70;2.08;;;;;;;23.50;35.85;100858.33;1823099;77;23761;-68
2021/05/11 13:32:02;;;;;;;5.47;1.77;;;;;;;23.55;36.15;100843.77;1823714;76;24151;-69
2021/05/11 13:34:38;;;;;;;4.08;1.40;;;;;;;23.59;36.18;100839.23;1821000;77;23430;-69
2021/05/11 13:37:27;;;;;;;8.90;1.92;;;;;;;23.56;36.30;100853.70;1735806;80;21008;-70
2021/05/11 13:40:05;;;;;;;5.80;1.95;;;;;;;23.64;36.37;100851.14;1827188;76;22619;-69
2021/05/11 13:42:48;;;;;;;7.95;2.40;;;;;;;23.63;36.36;100849.41;1818776;76;23395;-69
2021/05/11 13:45:29;;;;;;;9.75;2.50;;;;;;;23.64;36.62;100828.36;1811393;78;23790;-70
2021/05/11 13:51:20;;;;;;;4.12;2.10;;;;;;;23.66;36.41;100831.86;1832720;76;22112;-61
2021/05/11 13:54:13;;;;;;;5.03;1.45;;;;;;;23.69;36.48;100818.75;1817873;77;22845;-62
2021/05/11 14:05:16;;;;;;;6.85;2.02;;;;;;;23.71;35.91;100837.27;1732239;81;21530;-71
2021/05/11 14:07:59;;;;;;;9.00;2.67;;;;;;;23.79;36.35;100817.94;1805915;78;22407;-72
2021/05/11 14:10:45;;;;;;;4.30;1.90;;;;;;;23.80;36.37;100809.56;1786568;79;22295;-69
2021/05/11 14:13:23;;;;;;;7.60;2.25;;;;;;;23.82;36.34;100806.70;1818349;77;23344;-70
2021/05/11 14:16:08;;;;;;;4.92;2.10;;;;;;;23.80;36.09;100809.56;1788752;79;21059;-62
2021/05/11 14:18:45;;;;;;;5.72;1.67;;;;;;;23.88;35.93;100812.98;1822266;76;22280;-60
2021/05/11 14:21:23;;;;;;;6.97;1.90;;;;;;;23.87;36.02;100798.93;1824175;78;22486;-62
2021/05/11 14:24:11;;;;;;;9.75;2.00;;;;;;;23.89;36.03;100795.55;1798713;78;21330;-62
2021/05/11 14:26:48;;;;;;;9.98;2.00;;;;;;;23.98;36.08;100793.33;1819951;77;22351;-62
2021/05/11 14:29:26;;;;;;;6.92;1.75;;;;;;;24.03;36.08;100792.45;1818036;77;22337;-62
2021/05/11 14:32:05;;;;;;;8.20;1.92;;;;;;;24.04;36.13;100789.20;1813937;77;21906;-62
2021/05/11 14:34:50;;;;;;;7.97;2.20;;;;;;;23.96;36.32;100796.70;1795640;78;21225;-62
2021/05/11 14:37:28;;;;;;;6.62;1.92;;;;;;;23.99;36.25;100782.77;1822183;77;20900;-62
2021/05/11 14:40:37;;;;;;;8.38;1.85;;;;;;;23.98;36.59;100783.74;1862728;75;22296;-62
2021/05/11 14:43:14;;;;;;;4.47;2.20;;;;;;;23.98;36.47;100776.89;1824705;77;22104;-68
2021/05/11 14:46:02;;;;;;;9.83;1.60;;;;;;;23.92;36.55;100774.73;1788544;78;21035;-62
2021/05/11 14:48:39;;;;;;;3.75;1.50;;;;;;;24.00;36.63;100769.92;1817965;77;22830;-61
2021/05/11 14:51:17;;;;;;;10.55;1.85;;;;;;;23.99;36.76;100769.56;1822245;78;22719;-63
2021/05/11 14:53:58;;;;;;;9.40;1.60;;;;;;;23.96;37.01;100763.00;1824830;77;22616;-61
2021/05/11 14:56:43;;;;;;;10.45;2.30;;;;;;;23.94;37.25;100771.34;1823236;77;22860;-62
2021/05/11 14:59:29;;;;;;;5.28;1.90;;;;;;;23.90;37.44;100757.58;1786419;78;21213;-65
2021/05/11 15:02:07;;;;;;;9.15;1.90;;;;;;;23.97;37.39;100754.63;1823839;77;22551;-67
2021/05/11 15:04:44;;;;;;;7.15;1.50;;;;;;;23.97;37.39;100750.52;1811656;77;22287;-66
2021/05/11 15:07:29;;;;;;;9.28;1.70;;;;;;;24.00;37.13;100759.85;1846279;75;23451;-68
2021/05/11 15:10:14;;;;;;;7.25;2.47;;;;;;;23.93;37.38;100753.19;1756335;80;21253;-65
2021/05/11 15:12:54;;;;;;;10.55;2.12;;;;;;;23.96;37.54;100746.58;1834624;78;22584;-66
2021/05/11 15:15:33;;;;;;;13.95;2.00;;;;;;;23.95;37.60;100744.33;1836621;77;22034;-67
2021/05/11 15:18:11;;;;;;;9.78;2.22;;;;;;;23.94;37.56;100741.75;1843854;76;21904;-65
2021/05/11 15:20:56;;;;;;;4.37;1.45;;;;;;;23.85;37.55;100740.72;1767059;81;21206;-65
2021/05/11 15:23:35;;;;;;;7.03;1.50;;;;;;;23.87;37.87;100731.38;1835293;76;22222;-66
2021/05/11 15:26:13;;;;;;;8.65;1.90;;;;;;;23.82;38.02;100739.12;1771582;78;28002;-68
2021/05/11 15:28:51;;;;;;;10.82;2.17;;;;;;;23.81;38.41;100742.02;1813277;77;22016;-66
2021/05/11 15:31:27;;;;;;;7.05;2.10;;;;;;;23.72;38.62;100733.62;1799974;78;29477;-65
2021/05/11 15:34:04;;;;;;;6.37;2.25;;;;;;;23.70;38.41;100726.58;1786491;78;20911;-65
2021/05/11 15:36:42;;;;;;;9.35;2.65;;;;;;;23.61;38.53;100731.02;1837394;77;22105;-65
2021/05/11 15:39:18;;;;;;;6.42;2.27;;;;;;;23.53;38.73;100734.93;1793801;77;27956;-64
2021/05/11 15:42:05;;;;;;;6.70;2.08;;;;;;;23.46;38.85;100730.55;1780858;80;21246;-66
2021/05/11 15:44:42;;;;;;;6.03;2.20;;;;;;;23.45;38.90;100728.81;1819096;77;22402;-66
2021/05/11 15:47:20;;;;;;;8.13;2.37;;;;;;;23.39;39.01;100731.59;1835129;78;23337;-65
2021/05/11 15:50:03;;;;;;;15.32;2.83;;;;;;;23.34;39.06;100728.41;1801972;77;22946;-65
2021/05/11 15:52:49;;;;;;;6.75;2.55;;;;;;;23.27;39.25;100736.30;1773306;80;21047;-65
2021/05/11 15:55:27;;;;;;;12.13;2.70;;;;;;;23.29;39.34;100733.41;1825951;78;22451;-66
2021/05/11 15:58:06;;;;;;;11.38;2.95;;;;;;;23.28;39.28;100724.84;1817722;77;22851;-65
2021/05/11 16:00:53;;;;;;;6.50;2.72;;;;;;;23.20;39.40;100720.53;1781863;79;21092;-66
2021/05/11 16:03:37;;;;;;;9.08;2.80;;;;;;;23.20;39.53;100726.00;1823145;77;22427;-64
2021/05/11 16:06:15;;;;;;;7.87;2.70;;;;;;;23.15;39.78;100725.92;1823486;78;24172;-66
2021/05/11 16:08:52;;;;;;;11.48;2.90;;;;;;;23.10;40.06;100721.86;1820744;78;21433;-65
2021/05/11 16:11:34;;;;;;;7.78;2.27;;;;;;;23.05;40.26;100724.98;1824177;76;22345;-65
2021/05/11 16:14:17;;;;;;;6.97;2.17;;;;;;;22.98;40.57;100720.55;1819075;78;22406;-66
2021/05/11 16:17:00;;;;;;;6.42;2.22;;;;;;;22.96;40.58;100726.66;1793249;78;27935;-64
2021/05/11 16:19:40;;;;;;;7.72;2.60;;;;;;;22.97;40.80;100714.73;1791942;78;22697;-66
2021/05/11 16:22:25;;;;;;;10.93;3.17;;;;;;;22.91;40.87;100725.36;1753321;80;21063;-66
2021/05/11 16:25:04;;;;;;;12.28;2.95;;;;;;;22.89;41.18;100723.63;1824242;78;21434;-65
2021/05/11 16:27:48;;;;;;;15.10;2.92;;;;;;;22.83;41.35;100718.69;1855341;74;22206;-66
2021/05/11 16:30:38;;;;;;;10.68;2.65;;;;;;;22.74;41.51;100719.50;1841881;77;21090;-64
2021/05/11 16:33:17;;;;;;;10.08;2.55;;;;;;;22.74;41.75;100720.87;1816405;77;22222;-65